createdAt,value
2019-03-04T00:01:16.794Z,14.20
2019-03-04T00:03:45.320Z,15.63
2019-03-04T00:06:14.030Z,15.37
2019-03-04T00:08:42.567Z,13.90
2019-03-04T00:11:11.256Z,11.40
2019-03-04T00:13:39.835Z,11.40
2019-03-04T00:16:08.545Z,15.37
2019-03-04T00:18:38.411Z,21.47
2019-03-04T00:21:07.591Z,22.57
2019-03-04T00:23:36.115Z,22.43
2019-03-04T00:26:04.873Z,17.53
2019-03-04T00:28:33.826Z,16.77
2019-03-04T00:31:03.017Z,19.13
2019-03-04T00:33:33.750Z,16.80
2019-03-04T00:36:03.514Z,17.20
2019-03-04T00:38:32.395Z,13.07
2019-03-04T00:41:02.094Z,14.00
2019-03-04T00:43:30.961Z,10.70
2019-03-04T00:46:00.228Z,12.90
2019-03-04T00:48:29.274Z,11.87
2019-03-04T00:50:58.641Z,10.33
2019-03-04T00:53:27.239Z,10.73
2019-03-04T00:55:56.734Z,12.20
2019-03-04T00:58:28.263Z,12.93
2019-03-04T01:00:57.235Z,12.50
2019-03-04T01:03:26.361Z,11.83
2019-03-04T01:05:55.155Z,11.67
2019-03-04T01:08:24.950Z,12.63
2019-03-04T01:10:54.901Z,13.80
2019-03-04T01:13:26.757Z,16.63
2019-03-04T01:15:55.900Z,16.93
2019-03-04T01:18:25.277Z,12.20
2019-03-04T01:20:53.931Z,13.67
2019-03-04T01:23:22.577Z,14.53
2019-03-04T01:25:51.047Z,14.00
2019-03-04T01:28:19.882Z,14.50
2019-03-04T01:30:50.113Z,16.87
2019-03-04T01:33:19.528Z,15.63
2019-03-04T01:35:48.851Z,25.63
2019-03-04T01:38:17.867Z,16.77
2019-03-04T01:40:47.793Z,20.43
2019-03-04T01:43:16.442Z,33.77
2019-03-04T01:45:45.376Z,31.30
2019-03-04T01:48:14.124Z,35.77
2019-03-04T01:50:42.834Z,41.77
2019-03-04T01:53:11.378Z,42.20
2019-03-04T01:55:39.915Z,42.73
2019-03-04T01:58:08.539Z,38.47
2019-03-04T02:00:37.510Z,28.80
2019-03-04T02:03:06.027Z,31.33
2019-03-04T02:05:34.695Z,35.67
2019-03-04T02:08:03.183Z,34.27
2019-03-04T02:10:31.824Z,28.23
2019-03-04T02:13:01.866Z,28.43
2019-03-04T02:15:30.651Z,24.77
2019-03-04T02:18:00.003Z,27.30
2019-03-04T02:20:28.616Z,29.90
2019-03-04T02:22:57.662Z,29.83
2019-03-04T02:26:12.209Z,28.00
2019-03-04T02:28:41.313Z,21.47
2019-03-04T02:31:10.582Z,18.53
2019-03-04T02:33:40.234Z,23.03
2019-03-04T02:36:10.784Z,25.37
2019-03-04T02:38:39.742Z,24.73
2019-03-04T02:41:08.612Z,30.63
2019-03-04T02:43:37.897Z,31.40
2019-03-04T02:46:08.769Z,26.07
2019-03-04T02:48:37.812Z,28.13
2019-03-04T02:51:06.744Z,25.73
2019-03-04T02:53:35.679Z,23.43
2019-03-04T02:56:04.963Z,22.53
2019-03-04T02:58:33.937Z,27.70
2019-03-04T03:01:23.924Z,19.90
2019-03-04T03:03:52.978Z,91.27
2019-03-04T03:06:21.704Z,47.30
2019-03-04T03:08:51.268Z,168.30
2019-03-04T03:11:19.783Z,133.93
2019-03-04T03:13:48.426Z,268.33
2019-03-04T03:16:17.201Z,119.67
2019-03-04T03:18:45.881Z,532.13
2019-03-04T03:21:16.999Z,51.17
2019-03-04T03:23:46.395Z,44.53
2019-03-04T03:26:17.656Z,36.27
2019-03-04T03:28:46.633Z,36.03
2019-03-04T03:31:15.366Z,39.03
2019-03-04T03:33:43.957Z,39.43
2019-03-04T03:36:12.848Z,35.10
2019-03-04T03:38:41.592Z,30.03
2019-03-04T03:41:10.372Z,36.93
2019-03-04T03:43:38.908Z,30.80
2019-03-04T03:46:10.350Z,29.10
2019-03-04T03:48:39.585Z,32.13
2019-03-04T03:51:08.494Z,28.87
2019-03-04T03:53:37.238Z,31.10
2019-03-04T03:56:05.945Z,26.30
2019-03-04T03:58:34.863Z,32.40
2019-03-04T04:01:03.916Z,34.10
2019-03-04T04:03:32.616Z,33.10
2019-03-04T04:06:01.276Z,35.40
2019-03-04T04:08:30.840Z,34.33
2019-03-04T04:10:59.384Z,41.37
2019-03-04T04:13:29.417Z,39.07
2019-03-04T04:15:57.996Z,42.90
2019-03-04T04:18:26.621Z,43.00
2019-03-04T04:20:55.664Z,42.47
2019-03-04T04:23:24.967Z,43.73
2019-03-04T04:25:53.830Z,51.23
2019-03-04T04:28:22.529Z,49.07
2019-03-04T04:31:14.801Z,110.97
2019-03-04T04:33:44.124Z,89.40
2019-03-04T04:36:13.168Z,67.53
2019-03-04T04:38:42.268Z,54.93
2019-03-04T04:41:11.836Z,51.37
2019-03-04T04:43:40.764Z,56.50
2019-03-04T04:46:10.286Z,55.57
2019-03-04T04:48:39.833Z,44.13
2019-03-04T04:51:08.954Z,38.40
2019-03-04T04:53:37.810Z,43.33
2019-03-04T04:56:07.156Z,38.80
2019-03-04T04:58:36.009Z,36.83
2019-03-04T05:01:05.486Z,39.37
2019-03-04T05:03:34.382Z,43.87
2019-03-04T05:06:03.274Z,44.50
2019-03-04T05:08:32.465Z,48.10
2019-03-04T05:11:01.406Z,52.43
2019-03-04T05:13:30.239Z,46.30
2019-03-04T05:15:59.109Z,49.00
2019-03-04T05:18:28.094Z,44.17
2019-03-04T05:20:56.974Z,53.80
2019-03-04T05:23:26.581Z,54.00
2019-03-04T05:25:55.454Z,53.20
2019-03-04T05:28:24.554Z,49.70
2019-03-04T05:30:53.597Z,51.70
2019-03-04T05:33:22.683Z,53.97
2019-03-04T05:35:52.174Z,56.23
2019-03-04T05:38:21.281Z,54.20
2019-03-04T05:40:50.382Z,56.10
2019-03-04T05:43:19.317Z,66.03
2019-03-04T05:45:49.552Z,84.97
2019-03-04T05:48:18.426Z,92.93
2019-03-04T05:50:47.499Z,144.10
2019-03-04T05:53:17.096Z,145.10
2019-03-04T05:55:47.261Z,130.83
2019-03-04T05:58:16.328Z,89.80
2019-03-04T06:00:45.873Z,146.60
2019-03-04T06:03:15.401Z,237.57
2019-03-04T06:05:44.740Z,403.50
2019-03-04T06:08:14.256Z,282.40
2019-03-04T06:10:43.318Z,249.33
2019-03-04T06:13:12.495Z,247.27
2019-03-04T06:15:41.584Z,358.37
2019-03-04T06:18:10.516Z,163.03
2019-03-04T06:20:39.946Z,268.07
2019-03-04T06:23:08.863Z,139.20
2019-03-04T06:25:37.846Z,240.70
2019-03-04T06:28:06.789Z,173.47
2019-03-04T06:30:35.769Z,178.47
2019-03-04T06:33:04.748Z,206.13
2019-03-04T06:35:33.731Z,152.43
2019-03-04T06:38:03.074Z,130.77
2019-03-04T06:40:33.054Z,119.43
2019-03-04T06:43:04.496Z,124.37
2019-03-04T06:45:33.604Z,107.83
2019-03-04T06:48:02.948Z,109.93
2019-03-04T06:50:54.841Z,115.37
2019-03-04T06:54:11.113Z,114.80
2019-03-04T06:57:06.165Z,93.67
2019-03-04T07:00:38.529Z,96.87
2019-03-04T07:03:13.416Z,97.63
2019-03-04T07:05:54.205Z,104.30
2019-03-04T07:09:18.436Z,90.57
2019-03-04T07:11:52.814Z,88.10
2019-03-04T07:14:21.966Z,94.70
2019-03-04T07:16:52.254Z,90.63
2019-03-04T07:19:32.785Z,88.50
2019-03-04T07:22:01.909Z,88.67
2019-03-04T07:24:31.106Z,81.40
2019-03-04T07:27:00.821Z,77.40
2019-03-04T07:29:30.036Z,80.30
2019-03-04T07:31:59.036Z,71.23
2019-03-04T07:34:28.340Z,71.93
2019-03-04T07:36:57.241Z,62.13
2019-03-04T07:39:26.226Z,55.37
2019-03-04T07:41:57.394Z,57.27
2019-03-04T07:44:26.714Z,54.30
2019-03-04T07:46:56.208Z,56.70
2019-03-04T07:49:25.356Z,52.57
2019-03-04T07:51:54.308Z,59.10
2019-03-04T07:54:23.751Z,45.33
2019-03-04T07:56:53.546Z,45.90
2019-03-04T07:59:22.554Z,44.53
2019-03-04T08:01:51.595Z,44.33
2019-03-04T08:04:20.648Z,40.83
2019-03-04T08:06:50.373Z,41.40
2019-03-04T08:10:16.894Z,36.57
2019-03-04T08:13:07.848Z,33.53
2019-03-04T08:15:43.641Z,32.50
2019-03-04T08:18:12.751Z,28.37
2019-03-04T08:20:41.753Z,31.73
2019-03-04T08:23:10.821Z,31.47
2019-03-04T08:25:39.945Z,28.00
2019-03-04T08:28:12.001Z,28.70
2019-03-04T08:30:41.663Z,27.43
2019-03-04T08:33:11.321Z,23.03
2019-03-04T08:35:40.508Z,22.50
2019-03-04T08:38:09.880Z,26.80
2019-03-04T08:40:38.977Z,23.83
2019-03-04T08:43:08.024Z,26.80
2019-03-04T08:45:37.892Z,25.87
2019-03-04T08:48:07.139Z,31.00
2019-03-04T08:50:36.189Z,29.20
2019-03-04T08:53:05.221Z,27.57
2019-03-04T08:55:35.957Z,28.10
2019-03-04T08:58:05.203Z,29.70
2019-03-04T09:00:35.349Z,24.63
2019-03-04T09:03:05.074Z,28.27
2019-03-04T09:05:34.157Z,22.80
2019-03-04T09:08:03.354Z,13.77
2019-03-04T09:10:32.376Z,15.20
2019-03-04T09:13:01.381Z,15.70
2019-03-04T09:15:30.477Z,15.90
2019-03-04T09:17:59.848Z,13.03
2019-03-04T09:20:30.642Z,13.13
2019-03-04T09:22:59.588Z,14.83
2019-03-04T09:25:38.435Z,12.60
2019-03-04T09:28:07.496Z,14.03
2019-03-04T09:30:36.535Z,16.00
2019-03-04T09:33:07.367Z,16.60
2019-03-04T09:35:36.752Z,16.37
2019-03-04T09:38:06.323Z,14.27
2019-03-04T09:40:35.748Z,18.10
2019-03-04T09:43:07.614Z,15.73
2019-03-04T09:45:39.049Z,17.37
2019-03-04T09:48:08.548Z,15.47
2019-03-04T09:50:37.892Z,11.90
2019-03-04T09:53:08.393Z,12.37
2019-03-04T09:55:38.013Z,14.70
2019-03-04T09:58:07.336Z,13.37
2019-03-04T10:00:41.179Z,13.67
2019-03-04T10:04:11.507Z,13.13
2019-03-04T10:07:37.500Z,12.00
2019-03-04T10:10:55.171Z,10.47
2019-03-04T10:14:23.432Z,14.10
2019-03-04T10:17:37.061Z,11.07
2019-03-04T10:21:09.421Z,11.33
2019-03-04T10:24:32.978Z,10.03
2019-03-04T10:27:47.640Z,11.20
2019-03-04T10:31:17.619Z,8.77
2019-03-04T10:34:51.743Z,10.80
2019-03-04T10:38:22.565Z,6.90
2019-03-04T10:41:55.604Z,10.27
2019-03-04T10:45:28.925Z,7.50
2019-03-04T10:48:00.043Z,13.90
2019-03-04T10:50:30.101Z,10.57
2019-03-04T10:52:59.692Z,7.07
2019-03-04T10:55:28.751Z,10.30
2019-03-04T10:57:59.160Z,6.53
2019-03-04T11:00:28.655Z,9.37
2019-03-04T11:02:59.895Z,11.93
2019-03-04T11:05:30.777Z,8.97
2019-03-04T11:08:00.414Z,9.00
2019-03-04T11:10:29.893Z,13.53
2019-03-04T11:13:00.184Z,10.57
2019-03-04T11:15:29.688Z,8.83
2019-03-04T11:17:59.979Z,6.90
2019-03-04T11:20:31.454Z,10.80
2019-03-04T11:23:01.005Z,10.23
2019-03-04T11:25:31.347Z,10.63
2019-03-04T11:28:02.907Z,7.87
2019-03-04T11:30:34.058Z,12.20
2019-03-04T11:33:05.619Z,11.47
2019-03-04T11:35:37.564Z,8.13
2019-03-04T11:38:28.296Z,8.27
2019-03-04T11:40:59.584Z,10.00
2019-03-04T11:43:30.629Z,11.07
2019-03-04T11:46:00.436Z,12.63
2019-03-04T11:48:31.063Z,9.10
2019-03-04T11:51:02.412Z,6.80
2019-03-04T11:53:33.132Z,8.47
2019-03-04T11:56:04.136Z,6.93
2019-03-04T11:58:34.497Z,10.03
2019-03-04T12:01:15.966Z,9.50
2019-03-04T12:03:46.404Z,6.50
2019-03-04T12:06:16.179Z,6.47
2019-03-04T12:08:46.257Z,6.93
2019-03-04T12:11:16.530Z,4.20
2019-03-04T12:13:47.264Z,7.10
2019-03-04T12:16:16.536Z,5.37
2019-03-04T12:18:45.782Z,8.13
2019-03-04T12:21:16.634Z,4.60
2019-03-04T12:23:48.201Z,7.17
2019-03-04T12:26:18.874Z,5.07
2019-03-04T12:28:49.109Z,5.30
2019-03-04T12:31:20.479Z,7.70
2019-03-04T12:33:49.669Z,5.77
2019-03-04T12:36:19.422Z,4.83
2019-03-04T12:38:50.016Z,7.17
2019-03-04T12:41:24.200Z,4.80
2019-03-04T12:43:54.082Z,7.97
2019-03-04T12:46:25.455Z,4.13
2019-03-04T12:48:58.094Z,7.90
2019-03-04T12:51:27.322Z,5.83
2019-03-04T12:53:58.574Z,5.37
2019-03-04T12:56:27.969Z,4.50
2019-03-04T12:58:57.686Z,5.80
2019-03-04T13:01:27.384Z,5.00
2019-03-04T13:03:59.639Z,6.10
2019-03-04T13:06:30.663Z,5.57
2019-03-04T13:09:01.716Z,4.53
2019-03-04T13:11:33.091Z,4.13
2019-03-04T13:14:02.314Z,5.40
2019-03-04T13:16:32.369Z,4.80
2019-03-04T13:19:05.038Z,5.40
2019-03-04T13:21:34.462Z,4.37
2019-03-04T13:24:06.107Z,6.20
2019-03-04T13:26:36.049Z,4.40
2019-03-04T13:29:07.261Z,3.93
2019-03-04T13:31:38.186Z,6.13
2019-03-04T13:34:09.369Z,7.57
2019-03-04T13:36:39.516Z,5.63
2019-03-04T13:39:10.563Z,6.77
2019-03-04T13:41:42.445Z,6.70
2019-03-04T13:44:15.918Z,4.93
2019-03-04T13:46:53.754Z,4.90
2019-03-04T13:49:26.757Z,5.07
2019-03-04T13:51:57.860Z,9.70
2019-03-04T13:54:33.773Z,5.13
2019-03-04T13:57:05.756Z,9.07
2019-03-04T13:59:39.571Z,4.63
2019-03-04T14:02:09.811Z,5.30
2019-03-04T14:04:42.684Z,6.07
2019-03-04T14:07:12.619Z,8.17
2019-03-04T14:09:43.489Z,6.90
2019-03-04T14:12:14.871Z,5.83
2019-03-04T14:14:51.994Z,8.57
2019-03-04T14:17:23.756Z,6.60
2019-03-04T14:19:54.167Z,5.80
2019-03-04T14:22:27.842Z,4.07
2019-03-04T14:24:58.405Z,7.60
2019-03-04T14:27:31.166Z,9.30
2019-03-04T14:30:01.467Z,7.57
2019-03-04T14:32:33.204Z,6.30
2019-03-04T14:35:05.543Z,6.53
2019-03-04T14:37:39.273Z,4.17
2019-03-04T14:40:11.608Z,4.20
2019-03-04T14:42:42.026Z,7.93
2019-03-04T14:45:22.631Z,8.70
2019-03-04T14:47:53.638Z,6.30
2019-03-04T14:50:28.350Z,6.87
2019-03-04T14:52:58.685Z,8.10
2019-03-04T14:55:32.587Z,5.60
2019-03-04T14:58:03.340Z,5.77
2019-03-04T15:00:36.696Z,5.10
2019-03-04T15:03:20.639Z,9.83
2019-03-04T15:05:44.561Z,6.63
2019-03-04T15:08:16.406Z,8.03
2019-03-04T15:10:46.502Z,10.80
2019-03-04T15:13:17.539Z,6.23
2019-03-04T15:16:05.075Z,7.13
2019-03-04T15:18:35.177Z,7.83
2019-03-04T15:21:07.897Z,4.93
2019-03-04T15:23:38.593Z,10.80
2019-03-04T15:26:08.602Z,7.40
2019-03-04T15:28:40.733Z,7.87
2019-03-04T15:31:11.606Z,7.60
2019-03-04T15:33:43.063Z,7.93
2019-03-04T15:36:13.066Z,5.73
2019-03-04T15:38:42.839Z,4.80
2019-03-04T15:41:17.895Z,10.03
2019-03-04T15:43:50.332Z,7.20
2019-03-04T15:46:22.458Z,5.70
2019-03-04T15:48:54.157Z,5.73
2019-03-04T15:51:25.194Z,6.60
2019-03-04T15:53:55.891Z,6.30
2019-03-04T15:56:27.151Z,9.07
2019-03-04T15:59:00.285Z,8.27
2019-03-04T16:01:32.610Z,6.33
2019-03-04T16:04:03.293Z,8.30
2019-03-04T16:06:36.485Z,7.47
2019-03-04T16:09:21.194Z,8.27
2019-03-04T16:11:52.062Z,8.00
2019-03-04T16:14:22.827Z,6.77
2019-03-04T16:16:53.217Z,5.67
2019-03-04T16:19:26.495Z,8.20
2019-03-04T16:21:58.216Z,6.90
2019-03-04T16:24:28.347Z,9.33
2019-03-04T16:27:03.834Z,8.30
2019-03-04T16:29:37.675Z,6.90
2019-03-04T16:32:11.602Z,6.10
2019-03-04T16:34:41.457Z,9.90
2019-03-04T16:37:12.876Z,6.03
2019-03-04T16:39:45.264Z,9.97
2019-03-04T16:42:16.310Z,6.97
2019-03-04T16:44:48.533Z,7.83
2019-03-04T16:47:19.093Z,5.40
2019-03-04T16:49:49.147Z,7.97
2019-03-04T16:52:26.698Z,8.57
2019-03-04T16:54:57.493Z,10.03
2019-03-04T16:57:30.949Z,7.27
2019-03-04T17:00:02.390Z,12.27
2019-03-04T17:02:33.699Z,7.10
2019-03-04T17:05:06.109Z,7.73
2019-03-04T17:07:36.003Z,10.00
2019-03-04T17:10:08.609Z,7.90
2019-03-04T17:12:39.362Z,11.33
2019-03-04T17:15:14.895Z,9.33
2019-03-04T17:17:44.377Z,9.30
2019-03-04T17:20:16.324Z,8.50
2019-03-04T17:22:48.304Z,8.90
2019-03-04T17:25:19.624Z,8.30
2019-03-04T17:27:50.096Z,9.30
2019-03-04T17:30:22.875Z,9.77
2019-03-04T17:32:54.897Z,10.90
2019-03-04T17:35:26.531Z,11.00
2019-03-04T17:37:58.935Z,11.63
2019-03-04T17:40:28.174Z,9.20
2019-03-04T17:43:00.713Z,13.50
2019-03-04T17:45:31.626Z,8.87
2019-03-04T17:48:04.087Z,8.13
2019-03-04T17:50:35.898Z,9.03
2019-03-04T17:53:09.022Z,9.17
2019-03-04T17:55:39.185Z,10.50
2019-03-04T17:58:09.574Z,10.03
2019-03-04T18:00:43.582Z,9.47
2019-03-04T18:03:13.270Z,10.47
2019-03-04T18:05:47.884Z,11.33
2019-03-04T18:08:17.527Z,11.20
2019-03-04T18:10:48.909Z,9.93
2019-03-04T18:13:20.776Z,8.67
2019-03-04T18:15:51.098Z,12.43
2019-03-04T18:18:20.098Z,8.73
2019-03-04T18:20:50.609Z,11.10
2019-03-04T18:23:21.542Z,9.47
2019-03-04T18:26:10.876Z,8.60
2019-03-04T18:29:29.962Z,10.43
2019-03-04T18:33:27.199Z,9.17
2019-03-04T18:37:04.872Z,11.83
2019-03-04T18:40:34.594Z,11.03
2019-03-04T18:43:47.797Z,12.13
2019-03-04T18:46:53.111Z,10.30
2019-03-04T18:49:24.720Z,13.40
2019-03-04T18:51:55.729Z,12.67
2019-03-04T18:54:25.096Z,19.03
2019-03-04T18:56:54.907Z,16.93
2019-03-04T18:59:24.151Z,12.20
2019-03-04T19:01:53.964Z,11.30
2019-03-04T19:04:24.599Z,8.97
2019-03-04T19:06:54.352Z,9.70
2019-03-04T19:09:23.839Z,11.30
2019-03-04T19:11:55.767Z,12.17
2019-03-04T19:14:26.589Z,11.60
2019-03-04T19:16:57.984Z,15.73
2019-03-04T19:19:29.286Z,12.60
2019-03-04T19:22:00.242Z,12.20
2019-03-04T19:24:29.886Z,12.47
2019-03-04T19:26:59.054Z,11.47
2019-03-04T19:29:30.231Z,12.97
2019-03-04T19:32:00.972Z,10.70
2019-03-04T19:34:31.087Z,10.10
2019-03-04T19:37:02.389Z,10.37
2019-03-04T19:39:33.180Z,10.43
2019-03-04T19:42:04.149Z,10.57
2019-03-04T19:44:34.154Z,14.73
2019-03-04T19:47:04.340Z,12.63
2019-03-04T19:49:35.542Z,13.77
2019-03-04T19:52:07.616Z,11.60
2019-03-04T19:54:38.779Z,9.90
2019-03-04T19:57:08.787Z,10.57
2019-03-04T19:59:38.816Z,12.17
2019-03-04T20:02:09.531Z,9.60
2019-03-04T20:04:50.967Z,12.43
2019-03-04T20:07:19.856Z,9.13
2019-03-04T20:09:54.960Z,9.30
2019-03-04T20:12:23.634Z,11.20
2019-03-04T20:14:53.797Z,10.70
2019-03-04T20:17:23.372Z,11.57
2019-03-04T20:19:54.081Z,9.57
2019-03-04T20:22:23.452Z,11.57
2019-03-04T20:24:53.053Z,10.33
2019-03-04T20:27:25.262Z,11.93
2019-03-04T20:29:57.929Z,12.67
2019-03-04T20:32:27.121Z,12.37
2019-03-04T20:34:58.591Z,8.67
2019-03-04T20:37:29.075Z,12.87
2019-03-04T20:39:58.539Z,14.00
2019-03-04T20:42:28.996Z,14.33
2019-03-04T20:44:58.185Z,12.50
2019-03-04T20:47:28.941Z,14.13
2019-03-04T20:50:01.152Z,17.30
2019-03-04T20:52:32.644Z,9.83
2019-03-04T20:55:05.285Z,16.30
2019-03-04T20:57:35.997Z,14.03
2019-03-04T21:00:13.128Z,17.03
2019-03-04T21:02:45.011Z,12.37
2019-03-04T21:05:15.048Z,12.93
2019-03-04T21:07:45.314Z,13.40
2019-03-04T21:10:16.411Z,14.07
2019-03-04T21:12:46.823Z,18.20
2019-03-04T21:15:19.543Z,16.33
2019-03-04T21:17:50.164Z,19.77
2019-03-04T21:20:22.036Z,15.50
2019-03-04T21:22:52.429Z,13.27
2019-03-04T21:25:47.094Z,12.13
2019-03-04T21:29:07.909Z,16.67
2019-03-04T21:32:07.763Z,11.50
2019-03-04T21:36:15.852Z,13.07
2019-03-04T21:38:45.750Z,20.47
2019-03-04T21:41:51.060Z,17.27
2019-03-04T21:45:11.622Z,13.90
2019-03-04T21:47:49.546Z,14.83
2019-03-04T21:50:32.328Z,15.43
2019-03-04T21:53:17.045Z,21.10
2019-03-04T21:56:31.422Z,20.00
2019-03-04T21:59:01.151Z,15.67
2019-03-04T22:01:39.269Z,15.80
2019-03-04T22:04:10.578Z,18.13
2019-03-04T22:06:41.791Z,15.67
2019-03-04T22:09:10.935Z,18.47
2019-03-04T22:11:40.367Z,12.47
2019-03-04T22:14:10.527Z,16.50
2019-03-04T22:16:41.664Z,17.80
2019-03-04T22:19:10.275Z,16.20
2019-03-04T22:21:40.143Z,20.00
2019-03-04T22:24:11.333Z,16.67
2019-03-04T22:26:41.842Z,18.23
2019-03-04T22:29:11.781Z,21.00
2019-03-04T22:31:43.410Z,18.73
2019-03-04T22:34:14.332Z,17.87
2019-03-04T22:36:45.065Z,13.60
2019-03-04T22:39:13.603Z,18.87
2019-03-04T22:41:42.691Z,17.67
2019-03-04T22:44:11.936Z,18.90
2019-03-04T22:46:42.641Z,22.07
2019-03-04T22:49:13.570Z,17.40
2019-03-04T22:51:42.512Z,13.33
2019-03-04T22:54:11.116Z,24.77
2019-03-04T22:56:41.690Z,16.53
2019-03-04T22:59:11.528Z,24.03
2019-03-04T23:01:59.168Z,21.77
2019-03-04T23:05:01.538Z,21.07
2019-03-04T23:07:36.615Z,14.60
2019-03-04T23:10:37.775Z,14.30
2019-03-04T23:13:35.687Z,19.07
2019-03-04T23:16:06.908Z,17.67
2019-03-04T23:18:35.898Z,20.97
2019-03-04T23:21:06.535Z,19.83
2019-03-04T23:23:38.061Z,19.37
2019-03-04T23:26:11.333Z,18.33
2019-03-04T23:28:41.365Z,22.27
2019-03-04T23:31:11.646Z,17.10
2019-03-04T23:33:40.693Z,22.43
2019-03-04T23:36:10.147Z,18.83
2019-03-04T23:38:41.121Z,21.80
2019-03-04T23:41:11.012Z,16.90
2019-03-04T23:43:41.874Z,19.47
2019-03-04T23:46:12.617Z,20.87
2019-03-04T23:48:45.413Z,17.53
2019-03-04T23:51:14.459Z,17.93
2019-03-04T23:53:45.047Z,12.50
2019-03-04T23:56:15.347Z,18.93
2019-03-04T23:58:49.003Z,18.87
